Sitka, AK

1:55 PM AKDT on August 30, 2014 (GMT -0800)
Hoonah | Change Station
CLOSE
Current Station
Airport
Location: Hoonah,
Elevation: 0 ft
Nearby Weather Stations

Elev 0 ft 58.11 °N, 135.45 °W | Updated 27 minutes ago

Mostly Cloudy
Mostly Cloudy
59 °F
Feels Like 59 °F
N
9
Wind Variable Wind from East

Today
High -- | Low -- °F
--% Chance of Precip.
Yesterday
High -- | Low -- °F
Precip. -- in
5:59 AM 8:02 PM
Waxing Crescent, 25% visible
Pressure 29.67 in
Visibility 10.0 miles
Clouds Few 2400 ft
Scattered Clouds 3800 ft
Mostly Cloudy 5000 ft
Dew Point 55 °F
Humidity 88%
Rainfall 0.00 in
Snow Depth Not available.
UV 3 out of 12
Pollen Not available.
Air Quality Not available.
Flu Activity Not available.
SPECI PAOH 302128Z AUTO 09008KT 10SM FEW024 SCT038 BKN050 15/13 A2967 RMK AO2 TSNO BKN V SCT $

More Conditions Fewer Conditions

Pressure 29.67 in
Visibility 10.0 miles
Clouds Few 2400 ft
Scattered Clouds 3800 ft
Mostly Cloudy 5000 ft
Dew Point 55 °F
Humidity 88%
Rainfall 0.00 in
Snow Depth Not available.
UV 3 out of 12
Pollen Not available.
Air Quality Not available.
Flu Activity Not available.
SPECI PAOH 302128Z AUTO 09008KT 10SM FEW024 SCT038 BKN050 15/13 A2967 RMK AO2 TSNO BKN V SCT $

More Conditions Fewer Conditions

10-Day Weather Forecast

Almanac

Astronomy

Aug. 30, 2014 Rise Set
Actual Time 5:59 AM AKDT 8:02 PM AKDT
Civil Twilight 5:18 AM AKDT 8:43 PM AKDT
Nautical Twilight 4:26 AM AKDT 9:35 PM AKDT
Astronomical Twilight 3:22 AM AKDT 10:37 PM AKDT
Moon 11:59 AM AKDT 9:33 PM AKDT
Length of Visible Light 15h 25m
Length of Day
14h 03m
Tomorrow will be 4m 43s shorter.
Waxing Crescent, 25% of the Moon is Illuminated
Today
Waxing Crescent
Sep 2
First Quarter
Sep 8
Full
Sep 15
Last Quarter
Sep 24
New

Today's Extremes

State Highs State Lows

Community

WunderPhotos

Upload Photos

1,748,647 photos uploaded!

WunderBlogs® & News

Nearby

Snow Depth

Station Depth Elevation
Long Lake 0 in 820 ft
Upper Tsaina River 0 in 1750 ft
Grandview 6 in 1100 ft
Grouse Creek Divide 0 in 700 ft
Turnagain Pass 0 in 1880 ft

Earthquake Activity

City Distance Mag. Time & Date
No recent earthquake activity has been reported nearby.
Minimum magnitude displayed is 2.5.

Coastal Water Temperatures

Place Temperature
No Stations Reporting

Nearby Weather Stations